Time;durP1;ratioP1;P1;durP2;ratioP2;P2;SDS_P1;SDS_P2;PMS_P1;PMS_P2;Temp;Humidity;BMP_temperature;BMP_pressure;BME280_temperature;BME280_humidity;BME280_pressure;Samples;Min_cycle;Max_cycle;Signal;HPM_P1;HPM_P2
2022/04/28 00:00:45;;;;;;;23.88;14.20;;;7.20;99.90;;;;;;5056592;28;20126;-70
2022/04/28 00:03:11;;;;;;;27.92;15.45;;;7.20;99.90;;;;;;5055972;28;20473;-71
2022/04/28 00:05:37;;;;;;;23.98;11.13;;;7.20;99.90;;;;;;5056243;28;20044;-71
2022/04/28 00:08:04;;;;;;;24.50;10.77;;;7.30;99.90;;;;;;5056476;28;20044;-70
2022/04/28 00:10:30;;;;;;;20.27;8.68;;;7.30;99.90;;;;;;5056093;28;20041;-71
2022/04/28 00:12:56;;;;;;;19.15;6.38;;;7.40;99.90;;;;;;5056164;28;20060;-70
2022/04/28 00:15:22;;;;;;;20.02;6.70;;;7.50;99.90;;;;;;5056450;28;20052;-71
2022/04/28 00:17:48;;;;;;;16.00;6.13;;;7.50;99.90;;;;;;5056515;28;20057;-70
2022/04/28 00:20:13;;;;;;;13.43;5.25;;;7.50;99.90;;;;;;5035498;28;20052;-71
2022/04/28 00:22:39;;;;;;;14.20;5.18;;;7.60;99.90;;;;;;5056053;28;20112;-70
2022/04/28 00:25:06;;;;;;;9.65;3.65;;;7.60;99.90;;;;;;5056508;28;20040;-70
2022/04/28 00:27:33;;;;;;;15.15;4.10;;;7.70;99.90;;;;;;5055930;28;20040;-70
2022/04/28 00:29:58;;;;;;;14.13;3.90;;;7.60;99.90;;;;;;5038816;28;20339;-70
2022/04/28 00:32:24;;;;;;;9.20;3.33;;;7.70;99.90;;;;;;5055544;28;20098;-71
2022/04/28 00:34:49;;;;;;;9.65;3.47;;;7.70;99.90;;;;;;5055847;28;20354;-70
2022/04/28 00:37:15;;;;;;;12.32;3.28;;;7.70;99.90;;;;;;5056107;28;20045;-70
2022/04/28 00:39:41;;;;;;;12.93;4.75;;;7.70;99.90;;;;;;5055843;28;20048;-71
2022/04/28 00:42:11;;;;;;;11.10;3.72;;;7.80;99.90;;;;;;5055886;28;20040;-72
2022/04/28 00:44:37;;;;;;;11.32;3.63;;;7.80;99.90;;;;;;5056092;28;20059;-70
2022/04/28 00:47:03;;;;;;;11.15;3.53;;;7.80;99.90;;;;;;5055607;28;20120;-69
2022/04/28 00:52:13;;;;;;;;;;;7.80;99.90;;;;;;5056212;28;20045;-71
2022/04/28 00:54:39;;;;;;;11.68;3.47;;;7.80;99.90;;;;;;5055660;28;20011;-71
2022/04/28 00:57:04;;;;;;;9.88;3.60;;;7.80;99.90;;;;;;5055625;28;20098;-70
2022/04/28 00:59:30;;;;;;;9.07;3.25;;;7.80;99.90;;;;;;5055281;28;20092;-70
2022/04/28 01:01:56;;;;;;;7.72;3.10;;;7.80;99.90;;;;;;5054680;28;20045;-70
2022/04/28 01:04:21;;;;;;;12.00;3.72;;;7.80;99.90;;;;;;5055608;28;20155;-70
2022/04/28 01:06:47;;;;;;;16.90;3.70;;;7.80;99.90;;;;;;5038246;28;20446;-71
2022/04/28 01:09:14;;;;;;;9.68;3.60;;;7.80;99.90;;;;;;5037450;28;20053;-70
2022/04/28 01:11:40;;;;;;;13.43;4.13;;;7.80;99.90;;;;;;5038086;28;20052;-70
2022/04/28 01:14:06;;;;;;;14.10;4.43;;;7.80;99.90;;;;;;5020881;28;20079;-70
2022/04/28 01:16:32;;;;;;;12.93;3.35;;;7.80;99.90;;;;;;5055114;28;20446;-70
2022/04/28 01:18:59;;;;;;;12.73;3.83;;;7.80;99.90;;;;;;5055578;28;20445;-71
2022/04/28 01:21:25;;;;;;;11.57;3.13;;;7.80;99.90;;;;;;5055116;28;20048;-70
2022/04/28 01:23:51;;;;;;;13.38;3.55;;;7.80;99.90;;;;;;5055112;28;20331;-71
2022/04/28 01:26:16;;;;;;;9.25;3.50;;;7.80;99.90;;;;;;5037873;28;20044;-70
2022/04/28 01:28:42;;;;;;;11.40;3.22;;;7.90;99.90;;;;;;5055019;28;20045;-71
2022/04/28 01:31:08;;;;;;;10.52;3.38;;;7.90;99.90;;;;;;5054762;28;20055;-72
2022/04/28 01:33:33;;;;;;;11.35;4.05;;;7.90;99.90;;;;;;5036752;28;20056;-71
2022/04/28 01:35:59;;;;;;;18.48;4.30;;;7.80;99.90;;;;;;5054913;28;20357;-71
2022/04/28 01:38:25;;;;;;;8.18;3.22;;;7.80;99.90;;;;;;5037392;28;20183;-71
2022/04/28 01:40:51;;;;;;;15.07;3.70;;;7.80;99.90;;;;;;5054769;28;20369;-71
2022/04/28 01:43:17;;;;;;;9.23;3.53;;;7.80;99.90;;;;;;5054794;28;20041;-71
2022/04/28 01:45:43;;;;;;;9.25;3.47;;;7.80;99.90;;;;;;5054877;28;20049;-70
2022/04/28 01:48:09;;;;;;;11.38;3.70;;;7.80;99.90;;;;;;5055368;28;20063;-70
2022/04/28 01:50:35;;;;;;;11.52;3.45;;;7.80;99.90;;;;;;5054878;28;20418;-71
2022/04/28 01:55:44;;;;;;;10.90;3.30;;;7.80;99.90;;;;;;5055071;28;20055;-70
2022/04/28 01:58:10;;;;;;;8.35;3.53;;;7.90;99.90;;;;;;5053796;28;20380;-70
2022/04/28 02:00:36;;;;;;;11.48;4.35;;;7.90;99.90;;;;;;5054397;28;20091;-71
2022/04/28 02:03:01;;;;;;;9.52;3.35;;;7.90;99.90;;;;;;5054747;28;20037;-71
2022/04/28 02:05:27;;;;;;;9.20;3.28;;;7.80;99.90;;;;;;5054556;28;20059;-70
2022/04/28 02:07:53;;;;;;;9.68;3.55;;;7.80;99.90;;;;;;5054618;28;20076;-71
2022/04/28 02:10:20;;;;;;;9.65;3.30;;;7.90;99.90;;;;;;5054083;28;20045;-71
2022/04/28 02:12:45;;;;;;;12.95;4.00;;;7.90;99.90;;;;;;5054605;28;20105;-70
2022/04/28 02:15:11;;;;;;;6.93;3.10;;;7.90;99.90;;;;;;5056421;28;20404;-70
2022/04/28 02:17:38;;;;;;;10.70;3.40;;;7.80;99.90;;;;;;5058679;28;20032;-70
2022/04/28 02:20:06;;;;;;;10.30;3.75;;;7.90;99.90;;;;;;5058463;28;20049;-70
2022/04/28 02:22:32;;;;;;;12.07;3.92;;;7.80;99.90;;;;;;5058287;28;20045;-71
2022/04/28 02:24:58;;;;;;;12.07;3.58;;;7.80;99.90;;;;;;5059003;28;20351;-70
2022/04/28 02:27:24;;;;;;;9.20;3.08;;;7.80;99.90;;;;;;5058674;28;20052;-71
2022/04/28 02:29:53;;;;;;;9.55;3.75;;;7.80;99.90;;;;;;5040244;28;20457;-70
2022/04/28 02:32:19;;;;;;;10.75;3.58;;;7.80;99.90;;;;;;5040882;28;20059;-71
2022/04/28 02:34:45;;;;;;;9.85;3.42;;;7.80;99.90;;;;;;5058084;28;20044;-71
2022/04/28 02:37:11;;;;;;;10.23;4.05;;;7.80;99.90;;;;;;5058533;28;20045;-70
2022/04/28 02:39:37;;;;;;;14.98;3.70;;;7.80;99.90;;;;;;5058118;28;20045;-70
2022/04/28 02:42:03;;;;;;;9.02;3.70;;;7.80;99.90;;;;;;5040808;28;20059;-70
2022/04/28 02:44:28;;;;;;;10.30;3.40;;;7.80;99.90;;;;;;5058252;28;20072;-71
2022/04/28 02:46:54;;;;;;;9.88;4.03;;;7.80;99.90;;;;;;5058263;28;20049;-71
2022/04/28 02:49:20;;;;;;;7.30;3.40;;;7.80;99.90;;;;;;5058186;28;20568;-71
2022/04/28 02:51:45;;;;;;;14.45;3.65;;;7.80;99.90;;;;;;5057731;28;20040;-70
2022/04/28 02:54:11;;;;;;;8.90;3.88;;;7.80;99.90;;;;;;5057867;28;20049;-71
2022/04/28 02:56:37;;;;;;;19.77;4.03;;;7.90;99.90;;;;;;5057641;28;20390;-71
2022/04/28 02:59:03;;;;;;;7.90;3.28;;;7.90;99.90;;;;;;5056901;28;20044;-71
2022/04/28 03:01:29;;;;;;;10.75;3.58;;;8.10;99.90;;;;;;5057312;28;20126;-70
2022/04/28 03:03:54;;;;;;;8.02;3.47;;;7.90;99.90;;;;;;5057647;28;20474;-70
2022/04/28 03:11:51;;;;;;;9.52;3.70;;;8.00;99.90;;;;;;5057326;28;20049;-72
2022/04/28 03:14:16;;;;;;;10.35;3.70;;;7.90;99.90;;;;;;5057543;28;20075;-70
2022/04/28 03:16:42;;;;;;;9.20;4.18;;;7.90;99.90;;;;;;5040174;28;20040;-70
2022/04/28 03:19:08;;;;;;;9.98;3.70;;;7.90;99.90;;;;;;5057330;28;20111;-72
2022/04/28 03:21:35;;;;;;;10.80;3.55;;;7.90;99.90;;;;;;5057452;28;20041;-71
2022/04/28 03:24:01;;;;;;;10.57;3.67;;;7.90;99.90;;;;;;5040025;28;20056;-71
2022/04/28 03:26:28;;;;;;;9.57;3.33;;;8.00;99.90;;;;;;5057290;28;20090;-70
2022/04/28 03:28:55;;;;;;;10.75;4.03;;;7.90;99.90;;;;;;5057116;28;20513;-70
2022/04/28 03:31:20;;;;;;;13.25;4.22;;;7.90;99.90;;;;;;5056972;28;20124;-70
2022/04/28 03:33:46;;;;;;;10.68;3.97;;;7.90;99.90;;;;;;5039987;28;20158;-70
2022/04/28 03:38:55;;;;;;;11.55;3.80;;;7.80;99.90;;;;;;5057035;28;20053;-71
2022/04/28 03:41:21;;;;;;;7.35;3.47;;;7.80;99.90;;;;;;5057305;28;20049;-71
2022/04/28 03:43:46;;;;;;;10.88;3.85;;;7.80;99.90;;;;;;5056920;28;20477;-70
2022/04/28 03:46:13;;;;;;;8.82;3.42;;;7.80;99.90;;;;;;5057195;28;20049;-71
2022/04/28 03:48:38;;;;;;;10.23;3.50;;;7.80;99.90;;;;;;5056794;28;20048;-71
2022/04/28 03:51:04;;;;;;;9.15;3.55;;;7.80;99.90;;;;;;5057139;28;20063;-71
2022/04/28 03:53:30;;;;;;;8.13;3.63;;;7.80;99.90;;;;;;5056937;28;20040;-70
2022/04/28 03:55:57;;;;;;;8.38;3.42;;;7.80;99.90;;;;;;5039459;28;20122;-71
2022/04/28 03:58:26;;;;;;;9.30;3.50;;;7.80;99.90;;;;;;5056290;28;20049;-70
2022/04/28 04:00:52;;;;;;;10.18;3.63;;;7.80;99.90;;;;;;5051109;28;20033;-70
2022/04/28 04:03:20;;;;;;;14.27;4.68;;;7.80;99.90;;;;;;5056503;28;20041;-71
2022/04/28 04:05:46;;;;;;;14.43;4.57;;;7.80;99.90;;;;;;5056629;28;20059;-70
2022/04/28 04:08:12;;;;;;;8.80;3.70;;;7.80;99.90;;;;;;5056591;28;20041;-71
2022/04/28 04:10:38;;;;;;;11.07;4.63;;;7.80;99.90;;;;;;5056402;28;20080;-70
2022/04/28 04:13:04;;;;;;;8.20;3.55;;;7.80;99.90;;;;;;5056175;28;20091;-71
2022/04/28 04:15:30;;;;;;;11.02;3.75;;;7.80;99.90;;;;;;5043562;28;20041;-69
2022/04/28 04:17:56;;;;;;;9.98;4.03;;;7.80;99.90;;;;;;5053272;28;20202;-70
2022/04/28 04:20:22;;;;;;;10.75;4.18;;;7.80;99.90;;;;;;5044014;28;20425;-71
2022/04/28 04:22:47;;;;;;;10.35;4.25;;;7.80;99.90;;;;;;5035823;28;20060;-71
2022/04/28 04:25:13;;;;;;;11.23;4.07;;;7.80;99.90;;;;;;5047986;28;20056;-71
2022/04/28 04:27:39;;;;;;;7.80;4.30;;;7.80;99.90;;;;;;5056089;28;20041;-71
2022/04/28 04:33:06;;;;;;;9.10;4.50;;;7.80;99.90;;;;;;4994360;28;20045;-71
2022/04/28 04:35:32;;;;;;;7.43;4.15;;;7.70;99.90;;;;;;5027395;28;20136;-70
2022/04/28 04:37:57;;;;;;;13.75;4.60;;;7.80;99.90;;;;;;5046201;28;20048;-71
2022/04/28 04:40:23;;;;;;;12.73;4.97;;;7.80;99.90;;;;;;5047300;28;20041;-71
2022/04/28 04:42:49;;;;;;;10.40;4.57;;;7.80;99.90;;;;;;5054653;28;20037;-72
2022/04/28 04:45:14;;;;;;;11.88;4.72;;;7.80;99.90;;;;;;5055987;28;20073;-70
2022/04/28 04:47:40;;;;;;;11.98;4.70;;;7.80;99.90;;;;;;5055658;28;20041;-71
2022/04/28 04:50:08;;;;;;;10.80;4.63;;;7.80;99.90;;;;;;5055856;28;20053;-70
2022/04/28 04:52:34;;;;;;;12.23;5.00;;;7.80;99.90;;;;;;5055149;28;20120;-71
2022/04/28 04:55:01;;;;;;;11.57;4.72;;;7.90;99.90;;;;;;5055841;28;20127;-70
2022/04/28 04:57:26;;;;;;;10.15;4.45;;;7.90;99.90;;;;;;5055818;28;20449;-70
2022/04/28 04:59:52;;;;;;;12.32;5.20;;;7.90;99.90;;;;;;5041317;28;20134;-70
2022/04/28 05:02:18;;;;;;;11.43;5.32;;;7.90;99.90;;;;;;5051817;28;20056;-71
2022/04/28 05:04:43;;;;;;;8.32;4.45;;;8.00;99.90;;;;;;5055024;28;20475;-70
2022/04/28 05:07:09;;;;;;;12.63;4.95;;;8.00;99.90;;;;;;5054759;28;20053;-71
2022/04/28 05:09:37;;;;;;;12.23;4.53;;;8.10;99.90;;;;;;5055439;28;20063;-70
2022/04/28 05:12:06;;;;;;;12.38;4.25;;;8.10;99.90;;;;;;5055383;28;20098;-71
2022/04/28 05:14:32;;;;;;;14.13;4.80;;;8.10;99.90;;;;;;5051910;28;20413;-70
2022/04/28 05:16:58;;;;;;;10.32;4.55;;;8.10;99.90;;;;;;5051393;28;20068;-72
2022/04/28 05:19:24;;;;;;;15.13;5.28;;;8.20;99.90;;;;;;5053671;28;20073;-70
2022/04/28 05:21:51;;;;;;;13.85;4.40;;;8.20;99.90;;;;;;5037340;28;20048;-70
2022/04/28 05:24:16;;;;;;;13.85;4.20;;;8.20;99.90;;;;;;5054776;28;20037;-70
2022/04/28 05:26:42;;;;;;;10.32;5.20;;;8.20;99.90;;;;;;5054880;28;20427;-70
2022/04/28 05:29:08;;;;;;;11.57;4.40;;;8.30;99.90;;;;;;5053889;28;20044;-69
2022/04/28 05:31:33;;;;;;;11.20;4.80;;;8.30;99.90;;;;;;5037544;28;20046;-70
2022/04/28 05:33:59;;;;;;;12.32;4.55;;;8.30;99.90;;;;;;5054481;28;20037;-69
2022/04/28 05:36:26;;;;;;;14.60;4.63;;;8.40;99.90;;;;;;5035312;28;20374;-70
2022/04/28 05:38:52;;;;;;;13.13;4.25;;;8.40;99.90;;;;;;5034888;28;20405;-70
2022/04/28 05:41:18;;;;;;;17.00;4.75;;;8.40;99.90;;;;;;5035180;28;20115;-70
2022/04/28 05:46:28;;;;;;;10.70;4.50;;;8.50;99.90;;;;;;5046462;28;20049;-71
2022/04/28 05:48:54;;;;;;;13.80;4.97;;;8.60;99.90;;;;;;5053855;28;20041;-69
2022/04/28 05:51:19;;;;;;;12.95;4.10;;;8.70;99.90;;;;;;5054574;28;20041;-70
2022/04/28 05:53:45;;;;;;;14.75;4.18;;;8.80;99.90;;;;;;5037285;28;20148;-70
2022/04/28 05:56:10;;;;;;;16.10;4.10;;;8.90;99.90;;;;;;5054909;28;20120;-69
2022/04/28 05:58:36;;;;;;;10.95;3.70;;;9.10;99.90;;;;;;5054254;28;20065;-70
2022/04/28 06:01:02;;;;;;;11.32;3.67;;;9.10;99.90;;;;;;5054592;28;20056;-71
2022/04/28 06:03:27;;;;;;;12.02;2.88;;;9.10;99.90;;;;;;5054251;28;20051;-71
2022/04/28 06:05:53;;;;;;;16.40;3.95;;;9.20;99.90;;;;;;5055072;28;20041;-70
2022/04/28 06:08:18;;;;;;;13.48;3.83;;;9.40;99.90;;;;;;5054841;28;20037;-70
2022/04/28 06:10:44;;;;;;;7.30;2.78;;;9.40;99.90;;;;;;5054435;28;20453;-71
2022/04/28 06:13:10;;;;;;;8.80;3.08;;;9.50;99.90;;;;;;5054458;28;20049;-70
2022/04/28 06:15:35;;;;;;;15.32;3.10;;;9.60;99.90;;;;;;5054023;28;20056;-70
2022/04/28 06:18:01;;;;;;;14.23;3.30;;;9.60;99.90;;;;;;5054405;28;20187;-70
2022/04/28 06:20:27;;;;;;;14.02;3.08;;;9.80;99.90;;;;;;5054952;28;20059;-70
2022/04/28 06:22:52;;;;;;;12.93;3.22;;;10.00;99.90;;;;;;5053802;28;20041;-69
2022/04/28 06:25:18;;;;;;;9.23;2.85;;;10.10;99.90;;;;;;5054192;28;20048;-71
2022/04/28 06:27:44;;;;;;;10.55;2.90;;;10.30;99.90;;;;;;5054402;28;20067;-71
2022/04/28 06:30:10;;;;;;;11.98;3.85;;;10.50;99.90;;;;;;5056096;28;20476;-69
2022/04/28 06:32:35;;;;;;;9.95;2.80;;;10.70;99.90;;;;;;5052987;28;20033;-67
2022/04/28 06:35:02;;;;;;;9.68;3.15;;;10.70;99.90;;;;;;5052901;28;20401;-70
2022/04/28 06:37:28;;;;;;;11.88;2.85;;;10.70;99.90;;;;;;5054436;28;20053;-70
2022/04/28 06:39:54;;;;;;;12.98;2.85;;;10.60;99.90;;;;;;5053989;28;20041;-70
2022/04/28 06:42:19;;;;;;;9.00;3.90;;;10.60;99.90;;;;;;5054095;28;20037;-69
2022/04/28 06:44:45;;;;;;;10.70;3.10;;;10.60;99.90;;;;;;5036655;28;20465;-69
2022/04/28 06:47:11;;;;;;;12.32;3.08;;;11.10;99.90;;;;;;5032741;28;20137;-68
2022/04/28 06:49:37;;;;;;;8.77;2.88;;;12.00;99.90;;;;;;5034108;28;20102;-70
2022/04/28 06:52:03;;;;;;;10.60;2.83;;;12.60;99.90;;;;;;5030261;28;20053;-70
2022/04/28 06:54:29;;;;;;;13.02;3.15;;;12.90;99.90;;;;;;5051445;28;20056;-69
2022/04/28 06:56:54;;;;;;;9.48;2.80;;;12.80;99.90;;;;;;5054086;28;20473;-70
2022/04/28 06:59:20;;;;;;;13.52;3.40;;;12.70;99.90;;;;;;5053381;28;20417;-70
2022/04/28 07:01:46;;;;;;;11.90;2.50;;;12.40;99.90;;;;;;5056548;28;20049;-70
2022/04/28 07:04:12;;;;;;;12.20;2.78;;;12.00;99.90;;;;;;5057599;28;20559;-71
2022/04/28 07:06:38;;;;;;;16.27;2.90;;;11.70;99.90;;;;;;5057360;28;20499;-70
2022/04/28 07:09:03;;;;;;;11.27;2.08;;;11.90;99.90;;;;;;5057227;28;20045;-70
2022/04/28 07:11:29;;;;;;;11.40;2.35;;;11.90;99.90;;;;;;5057515;28;20364;-69
2022/04/28 07:13:54;;;;;;;13.27;2.40;;;11.70;99.90;;;;;;5057039;28;20051;-69
2022/04/28 07:16:20;;;;;;;8.65;2.33;;;11.70;99.90;;;;;;5052920;28;20052;-71
2022/04/28 07:18:45;;;;;;;11.27;2.22;;;11.70;99.90;;;;;;5052018;28;20132;-70
2022/04/28 07:21:11;;;;;;;11.10;2.58;;;12.10;99.90;;;;;;5045155;28;20076;-70
2022/04/28 07:23:37;;;;;;;7.22;2.47;;;12.60;99.90;;;;;;5035395;28;20377;-71
2022/04/28 07:26:03;;;;;;;6.32;1.90;;;13.10;99.90;;;;;;5039239;28;20051;-70
2022/04/28 07:28:28;;;;;;;7.10;2.22;;;13.10;99.90;;;;;;5037451;28;20120;-70
2022/04/28 07:30:54;;;;;;;9.43;2.63;;;12.70;99.90;;;;;;5037146;28;20037;-70
2022/04/28 07:33:20;;;;;;;12.48;2.70;;;12.30;99.90;;;;;;5037227;28;20472;-70
2022/04/28 07:35:45;;;;;;;11.20;2.58;;;12.20;99.90;;;;;;5036352;28;20140;-71
2022/04/28 07:38:11;;;;;;;10.38;2.60;;;12.20;99.90;;;;;;5037075;28;20045;-70
2022/04/28 07:40:36;;;;;;;11.63;2.90;;;12.50;99.90;;;;;;5052556;28;20083;-71
2022/04/28 07:43:03;;;;;;;8.00;2.17;;;12.80;99.90;;;;;;5057219;28;20414;-72
2022/04/28 07:45:29;;;;;;;7.18;1.75;;;13.70;99.90;;;;;;5056981;28;20049;-71
2022/04/28 07:47:54;;;;;;;5.63;1.80;;;14.70;99.90;;;;;;5056813;28;20060;-71
2022/04/28 07:50:21;;;;;;;8.75;1.70;;;15.10;99.90;;;;;;5056453;28;20059;-70
2022/04/28 07:52:47;;;;;;;6.68;1.45;;;15.90;99.90;;;;;;5056660;28;20049;-72
2022/04/28 07:55:13;;;;;;;10.27;1.83;;;16.20;99.90;;;;;;5056575;28;20063;-70
2022/04/28 07:57:39;;;;;;;6.32;1.52;;;15.80;99.70;;;;;;5056636;28;20255;-70
2022/04/28 08:00:06;;;;;;;10.25;1.98;;;15.70;99.40;;;;;;5056809;28;20167;-69
2022/04/28 08:02:32;;;;;;;6.53;1.67;;;15.50;99.90;;;;;;5056477;28;20056;-70
2022/04/28 08:04:59;;;;;;;5.82;1.60;;;15.40;99.30;;;;;;5056337;28;20056;-70
2022/04/28 08:07:24;;;;;;;6.35;1.60;;;15.30;99.90;;;;;;5055402;28;20550;-69
2022/04/28 08:09:51;;;;;;;7.13;2.83;;;15.60;99.20;;;;;;5056377;28;20099;-71
2022/04/28 08:12:16;;;;;;;8.88;2.10;;;15.20;99.70;;;;;;5055032;28;20041;-70
2022/04/28 08:14:42;;;;;;;13.73;2.75;;;14.90;99.90;;;;;;5056238;28;20052;-71
2022/04/28 08:17:07;;;;;;;6.72;1.80;;;15.10;99.90;;;;;;5056290;28;20507;-71
2022/04/28 08:19:34;;;;;;;6.13;2.15;;;15.80;99.90;;;;;;5038808;28;20064;-70
2022/04/28 08:22:00;;;;;;;9.40;2.55;;;15.90;99.90;;;;;;5053697;28;20069;-69
2022/04/28 08:24:25;;;;;;;9.50;1.95;;;15.70;99.90;;;;;;5054815;28;20095;-71
2022/04/28 08:26:52;;;;;;;6.03;2.00;;;15.10;99.90;;;;;;5055691;28;20041;-70
2022/04/28 08:29:18;;;;;;;12.07;2.00;;;14.80;99.90;;;;;;5037470;28;20483;-69
2022/04/28 08:31:44;;;;;;;8.75;2.50;;;14.60;99.90;;;;;;5046402;28;20041;-71
2022/04/28 08:34:11;;;;;;;9.75;2.30;;;15.10;99.90;;;;;;5043303;28;20086;-71
2022/04/28 08:36:37;;;;;;;14.13;3.03;;;15.20;99.90;;;;;;5028667;28;20117;-71
2022/04/28 08:39:02;;;;;;;11.68;2.10;;;15.40;99.90;;;;;;5055046;28;20045;-70
2022/04/28 08:41:34;;;;;;;9.27;2.05;;;16.00;99.90;;;;;;5036382;28;20123;-74
2022/04/28 08:44:01;;;;;;;8.50;2.17;;;15.90;99.90;;;;;;5037884;28;20049;-70
2022/04/28 08:49:13;;;;;;;9.38;2.17;;;15.70;99.60;;;;;;5045254;28;20123;-72
2022/04/28 08:51:40;;;;;;;9.30;1.80;;;15.40;99.60;;;;;;5051331;28;20064;-72
2022/04/28 08:54:09;;;;;;;6.32;1.55;;;14.70;99.90;;;;;;5037637;28;20057;-71
2022/04/28 08:56:34;;;;;;;8.55;1.92;;;14.50;99.90;;;;;;5034414;28;20061;-69
2022/04/28 08:59:00;;;;;;;7.90;1.85;;;14.00;99.90;;;;;;5034909;28;20068;-72
2022/04/28 09:01:27;;;;;;;10.88;2.42;;;13.70;99.90;;;;;;5034827;28;20055;-73
2022/04/28 09:03:57;;;;;;;8.93;2.55;;;13.70;99.90;;;;;;5017807;28;20370;-72
2022/04/28 09:06:29;;;;;;;9.82;2.50;;;13.50;99.90;;;;;;5051733;28;20067;-71
2022/04/28 09:08:57;;;;;;;6.00;1.90;;;13.50;99.90;;;;;;5036939;28;20412;-72
2022/04/28 09:11:25;;;;;;;7.60;2.35;;;13.40;99.90;;;;;;5054268;28;20481;-73
2022/04/28 09:17:03;;;;;;;9.82;2.80;;;13.20;99.90;;;;;;5054975;28;20045;-73
2022/04/28 09:19:39;;;;;;;9.85;2.50;;;13.10;99.90;;;;;;5054233;28;20052;-72
2022/04/28 09:22:09;;;;;;;10.38;2.70;;;13.00;99.90;;;;;;5038296;28;20042;-72
2022/04/28 09:24:36;;;;;;;6.15;2.33;;;12.80;99.90;;;;;;5054062;28;20040;-72
2022/04/28 09:27:03;;;;;;;10.18;2.83;;;13.00;99.90;;;;;;5054479;28;20138;-72
2022/04/28 09:29:30;;;;;;;12.82;2.95;;;13.10;99.90;;;;;;5051856;28;20040;-72
2022/04/28 09:31:56;;;;;;;7.78;2.50;;;13.20;99.90;;;;;;5053812;28;20140;-71
2022/04/28 09:34:24;;;;;;;9.93;2.92;;;13.40;99.90;;;;;;5053509;28;20047;-71
2022/04/28 09:36:50;;;;;;;9.48;3.90;;;13.60;99.90;;;;;;5036915;28;20358;-73
2022/04/28 09:44:54;;;;;;;8.25;3.40;;;14.10;99.90;;;;;;5053668;28;20060;-69
2022/04/28 09:47:21;;;;;;;14.65;3.80;;;14.10;99.90;;;;;;5054213;28;20033;-68
2022/04/28 09:49:53;;;;;;;18.17;4.05;;;14.40;99.90;;;;;;5053517;28;20041;-70
2022/04/28 09:52:20;;;;;;;13.88;4.10;;;14.40;99.90;;;;;;5002249;28;20179;-68
2022/04/28 09:54:47;;;;;;;12.13;3.60;;;14.20;99.90;;;;;;5054050;28;20496;-72
2022/04/28 09:57:14;;;;;;;11.15;3.25;;;13.90;99.90;;;;;;5036384;28;20064;-70
2022/04/28 09:59:39;;;;;;;9.77;3.17;;;13.90;99.90;;;;;;5053993;28;20056;-70
2022/04/28 10:02:15;;;;;;;11.98;3.58;;;14.00;99.90;;;;;;5053915;28;20431;-72
2022/04/28 10:04:42;;;;;;;9.95;3.72;;;13.90;99.90;;;;;;5053433;28;20041;-70
2022/04/28 10:07:09;;;;;;;12.70;3.63;;;13.80;99.90;;;;;;5053763;28;20076;-71
2022/04/28 10:09:36;;;;;;;10.23;2.88;;;13.60;99.90;;;;;;5053555;28;20048;-70
2022/04/28 10:12:06;;;;;;;11.82;2.97;;;13.60;99.90;;;;;;5053500;28;20048;-69
2022/04/28 10:14:33;;;;;;;16.05;3.50;;;13.80;99.90;;;;;;5050656;28;20045;-70
2022/04/28 10:17:01;;;;;;;11.27;2.75;;;13.80;99.90;;;;;;5053885;28;20043;-71
2022/04/28 10:19:31;;;;;;;8.50;2.85;;;13.80;99.90;;;;;;5052185;28;20085;-72
2022/04/28 10:22:05;;;;;;;12.27;3.53;;;13.80;99.90;;;;;;5053210;28;20045;-74
2022/04/28 10:33:04;;;;;;;12.10;3.20;;;13.70;99.90;;;;;;5035710;28;20053;-69
2022/04/28 10:35:48;;;;;;;7.50;2.58;;;13.40;99.90;;;;;;5047019;28;20041;-68
2022/04/28 10:39:02;;;;;;;14.40;3.25;;;13.30;99.90;;;;;;5049726;28;20429;-70
2022/04/28 10:41:29;;;;;;;10.77;2.72;;;13.70;99.90;;;;;;5043566;28;20151;-70
2022/04/28 10:43:58;;;;;;;11.43;2.80;;;13.80;99.90;;;;;;5046198;28;20470;-69
2022/04/28 10:46:27;;;;;;;12.73;3.05;;;13.90;99.90;;;;;;5028969;28;20054;-71
2022/04/28 10:48:55;;;;;;;12.75;3.08;;;13.90;99.90;;;;;;5047303;28;20532;-72
2022/04/28 10:51:22;;;;;;;10.93;2.75;;;13.70;99.90;;;;;;5049594;28;20492;-72
2022/04/28 10:54:11;;;;;;;14.73;3.05;;;13.80;99.90;;;;;;5051211;28;20069;-70
2022/04/28 10:56:50;;;;;;;9.23;2.70;;;13.90;99.90;;;;;;5029603;28;20046;-69
2022/04/28 10:59:31;;;;;;;14.45;3.15;;;14.30;99.90;;;;;;5048051;28;20095;-70
2022/04/28 11:02:09;;;;;;;7.05;2.42;;;14.40;99.90;;;;;;5045159;28;20106;-71
2022/04/28 11:04:35;;;;;;;10.93;2.63;;;14.40;99.90;;;;;;5038709;28;20049;-73
2022/04/28 11:07:07;;;;;;;13.13;3.05;;;14.50;99.90;;;;;;5037559;28;20103;-70
2022/04/28 11:09:41;;;;;;;10.52;2.88;;;14.40;99.90;;;;;;5020700;28;20057;-73
2022/04/28 11:12:11;;;;;;;8.55;2.88;;;14.50;99.90;;;;;;5037438;28;20041;-71
2022/04/28 11:15:13;;;;;;;17.27;3.20;;;14.50;99.90;;;;;;5038076;28;20367;-69
2022/04/28 11:17:41;;;;;;;12.52;3.00;;;14.40;99.90;;;;;;5036034;28;20068;-71
2022/04/28 11:20:13;;;;;;;9.98;2.78;;;14.20;99.90;;;;;;5057221;28;20121;-70
2022/04/28 11:22:43;;;;;;;7.53;2.58;;;14.00;99.90;;;;;;5039447;28;20055;-71
2022/04/28 11:25:13;;;;;;;10.30;3.00;;;14.00;99.90;;;;;;5039634;28;20056;-73
2022/04/28 11:27:41;;;;;;;8.48;2.47;;;14.00;99.90;;;;;;5057246;28;20044;-73
2022/04/28 11:30:10;;;;;;;13.50;3.67;;;13.90;99.90;;;;;;5057110;28;20057;-73
2022/04/28 11:32:45;;;;;;;6.40;2.50;;;13.80;99.90;;;;;;5057217;28;20416;-71
2022/04/28 11:35:10;;;;;;;12.23;2.75;;;13.90;99.90;;;;;;5056530;28;20049;-72
2022/04/28 11:37:38;;;;;;;11.05;2.92;;;14.10;99.90;;;;;;5056825;28;20037;-73
2022/04/28 11:40:06;;;;;;;15.57;2.80;;;14.10;99.90;;;;;;5056969;28;20392;-70
2022/04/28 11:42:33;;;;;;;11.40;2.92;;;14.00;99.90;;;;;;5056881;28;20480;-74
2022/04/28 11:45:00;;;;;;;9.73;2.50;;;13.90;99.90;;;;;;5055795;28;20469;-70
2022/04/28 11:47:27;;;;;;;9.25;2.47;;;13.90;99.90;;;;;;5038611;28;20052;-70
2022/04/28 11:50:02;;;;;;;8.73;2.60;;;14.10;99.90;;;;;;5055687;28;20094;-71
2022/04/28 11:52:33;;;;;;;12.90;2.92;;;13.80;99.90;;;;;;5053518;28;20051;-70
2022/04/28 11:55:11;;;;;;;10.82;2.75;;;13.70;99.90;;;;;;5053705;28;20415;-69
2022/04/28 11:57:41;;;;;;;12.10;2.70;;;13.80;99.90;;;;;;5056453;28;20041;-71
2022/04/28 12:00:09;;;;;;;10.07;2.60;;;13.90;99.90;;;;;;5056387;28;20053;-71
2022/04/28 12:02:36;;;;;;;15.63;3.40;;;14.00;99.90;;;;;;5054095;28;20060;-70
2022/04/28 12:05:25;;;;;;;14.98;3.13;;;14.00;99.90;;;;;;5031666;28;20140;-70
2022/04/28 12:07:53;;;;;;;16.58;3.20;;;13.60;99.90;;;;;;5018497;28;20073;-70
2022/04/28 12:16:23;;;;;;;15.32;3.53;;;13.40;99.90;;;;;;5035626;28;20060;-70
2022/04/28 12:21:35;;;;;;;7.40;2.67;;;14.10;99.90;;;;;;5055649;28;20041;-69
2022/04/28 12:24:08;;;;;;;14.32;3.95;;;14.00;99.90;;;;;;5053754;28;20106;-71
2022/04/28 12:26:39;;;;;;;15.57;2.75;;;14.10;99.90;;;;;;5055238;28;20119;-70
2022/04/28 12:29:16;;;;;;;10.05;2.60;;;14.30;99.90;;;;;;5039127;28;20133;-72
2022/04/28 12:31:43;;;;;;;11.90;3.00;;;14.20;99.90;;;;;;5018403;28;20053;-70
2022/04/28 12:34:24;;;;;;;14.43;2.60;;;14.20;99.90;;;;;;5035703;28;20041;-69
2022/04/28 12:36:58;;;;;;;9.30;2.63;;;14.30;99.90;;;;;;5035326;28;20486;-69
2022/04/28 12:39:27;;;;;;;12.32;2.83;;;14.40;99.90;;;;;;5039682;28;20049;-69
2022/04/28 12:41:53;;;;;;;12.55;2.83;;;14.50;99.90;;;;;;5052151;28;20060;-71
2022/04/28 12:44:20;;;;;;;8.50;2.58;;;14.60;99.90;;;;;;5035644;28;20037;-70
2022/04/28 12:46:46;;;;;;;10.52;2.88;;;14.60;99.90;;;;;;5018314;28;20384;-71
2022/04/28 12:49:13;;;;;;;8.25;2.55;;;14.50;99.90;;;;;;5050925;28;20045;-71
2022/04/28 12:51:50;;;;;;;11.95;2.55;;;14.40;99.90;;;;;;5054773;28;20056;-70
2022/04/28 12:54:21;;;;;;;13.23;2.70;;;14.40;99.90;;;;;;5055223;28;20412;-70
2022/04/28 12:57:00;;;;;;;14.48;3.20;;;14.50;99.90;;;;;;5054932;28;20544;-70
2022/04/28 12:59:31;;;;;;;7.75;2.90;;;14.50;99.90;;;;;;5054395;28;20080;-71
2022/04/28 13:01:58;;;;;;;16.20;2.97;;;14.30;99.90;;;;;;5055283;28;20056;-70
2022/04/28 13:04:26;;;;;;;11.45;2.90;;;14.30;99.90;;;;;;5003720;28;20568;-71
2022/04/28 13:06:54;;;;;;;10.57;3.00;;;14.00;99.90;;;;;;5054750;28;20091;-71
2022/04/28 13:09:21;;;;;;;8.48;2.95;;;14.10;99.90;;;;;;5037382;28;20116;-72
2022/04/28 13:11:49;;;;;;;11.68;2.80;;;14.00;99.90;;;;;;5037351;28;20186;-70
2022/04/28 13:14:18;;;;;;;9.90;2.92;;;14.10;99.90;;;;;;5055154;28;20049;-70
2022/04/28 13:16:46;;;;;;;12.65;2.70;;;13.80;99.90;;;;;;5054816;28;20045;-70
2022/04/28 13:19:12;;;;;;;7.20;2.35;;;13.80;99.90;;;;;;5034486;28;20067;-72
2022/04/28 13:21:39;;;;;;;10.23;2.97;;;14.10;99.90;;;;;;5054687;28;20037;-68
2022/04/28 13:24:06;;;;;;;10.48;2.50;;;14.10;99.90;;;;;;5054233;28;20068;-68
2022/04/28 13:26:31;;;;;;;10.88;2.78;;;14.00;99.90;;;;;;5054663;28;20059;-69
2022/04/28 13:28:58;;;;;;;11.63;3.33;;;13.90;99.90;;;;;;5037022;28;20128;-69
2022/04/28 13:31:24;;;;;;;7.75;2.75;;;13.70;99.90;;;;;;5054123;28;20064;-68
2022/04/28 13:33:52;;;;;;;14.00;2.70;;;13.50;99.90;;;;;;5054811;28;20446;-68